createdAt,value
2018-01-18T00:00:52.177Z,28.87
2018-01-18T00:03:19.599Z,34.95
2018-01-18T00:05:47.010Z,34.58
2018-01-18T00:08:14.430Z,23.95
2018-01-18T00:10:41.865Z,21.60
2018-01-18T00:13:10.063Z,23.30
2018-01-18T00:15:38.269Z,36.90
2018-01-18T00:18:05.688Z,26.70
2018-01-18T00:20:33.216Z,27.30
2018-01-18T00:23:00.622Z,27.65
2018-01-18T00:25:28.801Z,34.10
2018-01-18T00:27:56.250Z,34.35
2018-01-18T00:30:23.669Z,28.10
2018-01-18T00:32:51.866Z,23.00
2018-01-18T00:35:20.069Z,26.27
2018-01-18T00:37:47.561Z,34.33
2018-01-18T00:40:15.028Z,26.17
2018-01-18T00:42:42.482Z,41.88
2018-01-18T00:45:09.915Z,30.73
2018-01-18T00:47:38.089Z,38.40
2018-01-18T00:50:05.608Z,32.45
2018-01-18T00:52:33.030Z,27.75
2018-01-18T00:55:01.947Z,44.83
2018-01-18T00:57:30.122Z,36.78
2018-01-18T00:59:58.312Z,25.90
2018-01-18T01:02:26.488Z,35.13
2018-01-18T01:04:54.725Z,32.42
2018-01-18T01:07:22.131Z,34.05
2018-01-18T01:09:49.558Z,26.02
2018-01-18T01:12:16.986Z,31.08
2018-01-18T01:14:44.589Z,30.77
2018-01-18T01:17:11.998Z,27.70
2018-01-18T01:19:39.430Z,22.35
2018-01-18T01:22:06.857Z,33.15
2018-01-18T01:24:34.275Z,34.90
2018-01-18T01:27:01.759Z,25.45
2018-01-18T01:29:29.165Z,38.67
2018-01-18T01:31:57.375Z,26.33
2018-01-18T01:34:24.816Z,26.45
2018-01-18T01:36:52.233Z,39.17
2018-01-18T01:39:19.657Z,35.28
2018-01-18T01:41:47.916Z,44.50
2018-01-18T01:44:15.369Z,36.03
2018-01-18T01:46:42.826Z,41.00
2018-01-18T01:49:10.249Z,32.65
2018-01-18T01:51:38.461Z,41.00
2018-01-18T01:54:05.881Z,31.37
2018-01-18T01:56:33.411Z,43.20
2018-01-18T01:59:00.829Z,33.20
2018-01-18T02:01:28.353Z,34.72
2018-01-18T02:03:55.828Z,40.20
2018-01-18T02:06:23.245Z,31.20
2018-01-18T02:08:50.670Z,40.65
2018-01-18T02:11:18.138Z,41.85
2018-01-18T02:13:45.542Z,32.53
2018-01-18T02:16:12.961Z,41.10
2018-01-18T02:18:40.386Z,40.78
2018-01-18T02:21:07.892Z,41.55
2018-01-18T02:23:35.352Z,37.22
2018-01-18T02:26:02.777Z,34.60
2018-01-18T02:28:30.221Z,33.40
2018-01-18T02:30:57.671Z,32.97
2018-01-18T02:33:25.083Z,26.90
2018-01-18T02:35:52.530Z,38.65
2018-01-18T02:38:19.943Z,38.33
2018-01-18T02:40:48.161Z,34.80
2018-01-18T02:43:15.594Z,35.30
2018-01-18T02:45:43.773Z,29.98
2018-01-18T02:48:11.206Z,38.22
2018-01-18T02:50:38.626Z,37.10
2018-01-18T02:53:06.836Z,36.50
2018-01-18T02:55:34.253Z,32.20
2018-01-18T02:58:01.779Z,24.60
2018-01-18T03:00:29.218Z,30.98
2018-01-18T03:02:57.443Z,30.42
2018-01-18T03:05:24.853Z,42.50
2018-01-18T03:07:52.303Z,36.72
2018-01-18T03:10:19.742Z,33.55
2018-01-18T03:12:47.210Z,27.30
2018-01-18T03:15:15.382Z,34.03
2018-01-18T03:17:42.813Z,30.05
2018-01-18T03:20:10.221Z,32.88
2018-01-18T03:22:37.659Z,52.28
2018-01-18T03:25:05.889Z,22.75
2018-01-18T03:27:33.309Z,32.65
2018-01-18T03:30:00.757Z,33.13
2018-01-18T03:32:28.265Z,30.95
2018-01-18T03:34:56.477Z,26.27
2018-01-18T03:37:23.938Z,25.30
2018-01-18T03:39:51.356Z,34.63
2018-01-18T03:42:18.901Z,48.80
2018-01-18T03:44:46.303Z,41.75
2018-01-18T03:47:13.734Z,34.38
2018-01-18T03:49:41.161Z,29.75
2018-01-18T03:52:09.329Z,32.22
2018-01-18T03:54:36.947Z,35.28
2018-01-18T03:57:04.365Z,26.42
2018-01-18T03:59:31.885Z,27.98
2018-01-18T04:01:59.321Z,32.88
2018-01-18T04:04:27.530Z,37.65
2018-01-18T04:06:54.958Z,31.92
2018-01-18T04:09:22.473Z,27.50
2018-01-18T04:11:49.897Z,26.33
2018-01-18T04:14:17.335Z,21.65
2018-01-18T04:16:44.780Z,31.35
2018-01-18T04:19:12.204Z,35.25
2018-01-18T04:21:39.714Z,38.03
2018-01-18T04:24:07.152Z,33.60
2018-01-18T04:26:35.333Z,28.65
2018-01-18T04:29:03.509Z,31.83
2018-01-18T04:31:30.956Z,26.65
2018-01-18T04:33:58.352Z,26.15
2018-01-18T04:36:26.567Z,30.70
2018-01-18T04:38:54.760Z,30.48
2018-01-18T04:41:22.177Z,29.87
2018-01-18T04:43:49.603Z,24.55
2018-01-18T04:46:17.145Z,33.00
2018-01-18T04:48:45.335Z,19.90
2018-01-18T04:51:12.832Z,25.42
2018-01-18T04:53:40.296Z,21.65
2018-01-18T04:56:07.729Z,23.62
2018-01-18T04:58:35.911Z,23.27
2018-01-18T05:01:04.106Z,26.85
2018-01-18T05:03:32.329Z,25.48
2018-01-18T05:05:59.741Z,29.98
2018-01-18T05:08:27.161Z,39.22
2018-01-18T05:10:54.573Z,26.75
2018-01-18T05:13:22.131Z,33.58
2018-01-18T05:15:49.568Z,38.97
2018-01-18T05:18:17.029Z,34.20
2018-01-18T05:20:44.514Z,27.40
2018-01-18T05:23:11.960Z,27.58
2018-01-18T05:25:40.137Z,32.63
2018-01-18T05:28:08.316Z,24.15
2018-01-18T05:30:36.509Z,28.35
2018-01-18T05:33:04.698Z,20.80
2018-01-18T05:35:33.053Z,30.17
2018-01-18T05:38:00.530Z,24.67
2018-01-18T05:40:27.954Z,20.98
2018-01-18T05:42:55.366Z,21.75
2018-01-18T05:45:22.781Z,25.05
2018-01-18T05:47:50.219Z,33.80
2018-01-18T05:50:18.401Z,26.40
2018-01-18T05:52:46.651Z,32.67
2018-01-18T05:55:14.085Z,23.05
2018-01-18T05:57:42.270Z,20.12
2018-01-18T06:00:09.678Z,31.42
2018-01-18T06:02:37.113Z,24.90
2018-01-18T06:05:04.542Z,22.85
2018-01-18T06:07:32.742Z,24.90
2018-01-18T06:10:00.921Z,22.37
2018-01-18T06:12:29.128Z,13.32
2018-01-18T06:14:56.565Z,22.58
2018-01-18T06:17:23.978Z,27.35
2018-01-18T06:19:51.385Z,22.37
2018-01-18T06:22:18.821Z,27.05
2018-01-18T06:24:46.285Z,19.80
2018-01-18T06:27:13.733Z,18.98
2018-01-18T06:29:41.885Z,18.12
2018-01-18T06:32:09.312Z,8.85
2018-01-18T06:34:36.725Z,16.00
2018-01-18T06:37:04.250Z,17.70
2018-01-18T06:39:31.660Z,14.63
2018-01-18T06:41:59.193Z,15.48
2018-01-18T06:44:26.598Z,12.37
2018-01-18T06:46:54.113Z,13.55
2018-01-18T06:49:21.591Z,16.42
2018-01-18T06:51:49.026Z,19.95
2018-01-18T06:54:17.293Z,7.12
2018-01-18T06:56:44.717Z,4.50
2018-01-18T06:59:12.105Z,11.85
2018-01-18T07:01:39.513Z,15.60
2018-01-18T07:04:07.738Z,9.50
2018-01-18T07:06:35.121Z,14.95
2018-01-18T07:09:02.628Z,2.70
2018-01-18T07:11:30.805Z,8.93
2018-01-18T07:13:58.237Z,11.60
2018-01-18T07:16:25.623Z,9.13
2018-01-18T07:18:53.085Z,6.75
2018-01-18T07:21:20.502Z,4.97
2018-01-18T07:23:48.676Z,4.22
2018-01-18T07:26:16.093Z,5.18
2018-01-18T07:28:43.538Z,6.50
2018-01-18T07:31:11.692Z,3.00
2018-01-18T07:33:39.111Z,5.07
2018-01-18T07:36:06.543Z,1.87
2018-01-18T07:38:34.721Z,3.80
2018-01-18T07:41:02.238Z,3.97
2018-01-18T07:43:29.668Z,4.55
2018-01-18T07:45:57.899Z,3.25
2018-01-18T07:48:25.453Z,3.08
2018-01-18T07:50:53.619Z,3.22
2018-01-18T07:53:21.057Z,5.28
2018-01-18T07:55:48.500Z,3.83
2018-01-18T07:58:15.925Z,3.50
2018-01-18T08:00:43.360Z,1.67
2018-01-18T08:03:16.379Z,2.20
2018-01-18T08:05:44.873Z,2.92
2018-01-18T08:08:12.271Z,1.27
2018-01-18T08:10:39.726Z,2.45
2018-01-18T08:13:07.150Z,1.70
2018-01-18T08:15:34.574Z,1.12
2018-01-18T08:18:02.006Z,3.28
2018-01-18T08:20:30.238Z,2.35
2018-01-18T08:22:57.709Z,0.80
2018-01-18T08:25:25.122Z,1.30
2018-01-18T08:27:52.650Z,2.12
2018-01-18T08:30:20.082Z,1.60
2018-01-18T08:32:47.487Z,1.52
2018-01-18T08:35:14.935Z,1.20
2018-01-18T08:37:42.350Z,1.00
2018-01-18T08:40:09.865Z,1.27
2018-01-18T08:42:37.303Z,1.00
2018-01-18T08:45:05.489Z,1.55
2018-01-18T08:47:33.696Z,0.60
2018-01-18T08:50:01.190Z,1.33
2018-01-18T08:52:28.589Z,2.95
2018-01-18T08:54:56.014Z,1.58
2018-01-18T08:57:24.242Z,1.50
2018-01-18T08:59:51.676Z,2.58
2018-01-18T09:02:19.096Z,2.72
2018-01-18T09:04:46.538Z,1.30
2018-01-18T09:07:14.014Z,1.87
2018-01-18T09:09:41.542Z,4.10
2018-01-18T09:12:08.950Z,0.98
2018-01-18T09:14:36.389Z,3.20
2018-01-18T09:17:03.845Z,2.65
2018-01-18T09:19:31.258Z,3.72
2018-01-18T09:21:58.688Z,2.55
2018-01-18T09:24:26.112Z,0.80
2018-01-18T09:26:53.741Z,2.45
2018-01-18T09:29:21.160Z,3.17
2018-01-18T09:31:48.612Z,2.75
2018-01-18T09:34:16.022Z,0.80
2018-01-18T09:36:43.710Z,1.15
2018-01-18T09:39:11.864Z,4.45
2018-01-18T09:41:41.733Z,3.92
2018-01-18T09:44:09.112Z,2.85
2018-01-18T09:46:36.566Z,1.98
2018-01-18T09:49:03.969Z,2.95
2018-01-18T09:51:31.427Z,1.98
2018-01-18T09:53:58.841Z,3.12
2018-01-18T09:56:26.253Z,4.90
2018-01-18T09:58:53.683Z,2.22
2018-01-18T10:01:21.914Z,5.00
2018-01-18T10:03:49.366Z,2.10
2018-01-18T10:06:16.835Z,4.57
2018-01-18T10:08:44.305Z,10.05
2018-01-18T10:11:11.713Z,4.30
2018-01-18T10:13:39.125Z,4.03
2018-01-18T10:16:06.601Z,7.30
2018-01-18T10:18:34.078Z,8.43
2018-01-18T10:21:01.493Z,5.62
2018-01-18T10:23:29.720Z,12.90
2018-01-18T10:25:57.217Z,4.22
2018-01-18T10:28:24.650Z,7.53
2018-01-18T10:30:52.076Z,11.40
2018-01-18T10:33:19.497Z,13.73
2018-01-18T10:35:46.938Z,11.85
2018-01-18T10:38:15.148Z,5.30
2018-01-18T10:40:43.348Z,12.63
2018-01-18T10:43:10.824Z,15.40
2018-01-18T10:45:38.976Z,10.20
2018-01-18T10:48:06.370Z,15.73
2018-01-18T10:50:33.921Z,12.07
2018-01-18T10:53:01.447Z,15.93
2018-01-18T10:55:28.869Z,14.47
2018-01-18T10:57:56.308Z,10.40
2018-01-18T11:00:23.695Z,17.87
2018-01-18T11:02:51.110Z,22.30
2018-01-18T11:05:18.577Z,13.37
2018-01-18T11:07:45.989Z,22.80
2018-01-18T11:10:14.445Z,18.60
2018-01-18T11:12:41.969Z,11.30
2018-01-18T11:15:09.437Z,21.50
2018-01-18T11:17:36.865Z,22.37
2018-01-18T11:20:04.279Z,21.37
2018-01-18T11:22:31.694Z,11.67
2018-01-18T11:24:59.112Z,14.10
2018-01-18T11:27:26.587Z,19.17
2018-01-18T11:29:54.765Z,15.90
2018-01-18T11:32:22.186Z,15.90
2018-01-18T11:34:49.702Z,10.23
2018-01-18T11:37:17.129Z,16.90
2018-01-18T11:39:44.580Z,29.07
2018-01-18T11:42:12.011Z,12.73
2018-01-18T11:44:39.413Z,7.53
2018-01-18T11:47:06.825Z,7.10
2018-01-18T11:49:35.010Z,15.07
2018-01-18T11:52:03.262Z,12.83
2018-01-18T11:54:30.793Z,10.60
2018-01-18T11:56:58.961Z,11.53
2018-01-18T11:59:27.207Z,9.53
2018-01-18T12:01:54.731Z,5.50
2018-01-18T12:04:22.149Z,6.50
2018-01-18T12:06:49.685Z,4.30
2018-01-18T12:09:17.120Z,4.30
2018-01-18T12:11:45.327Z,5.68
2018-01-18T12:14:12.798Z,2.15
2018-01-18T12:16:40.957Z,5.18
2018-01-18T12:19:09.141Z,27.33
2018-01-18T12:21:37.343Z,3.80
2018-01-18T12:24:04.759Z,2.37
2018-01-18T12:26:32.183Z,4.95
2018-01-18T12:28:59.686Z,3.47
2018-01-18T12:31:27.135Z,7.03
2018-01-18T12:33:54.554Z,8.93
2018-01-18T12:36:21.982Z,3.45
2018-01-18T12:38:49.418Z,5.25
2018-01-18T12:41:17.601Z,3.20
2018-01-18T12:43:45.019Z,4.25
2018-01-18T12:46:12.482Z,3.20
2018-01-18T12:48:39.928Z,3.22
2018-01-18T12:51:07.342Z,6.18
2018-01-18T12:53:34.761Z,1.12
2018-01-18T12:56:02.229Z,2.35
2018-01-18T12:58:29.621Z,6.07
2018-01-18T13:00:57.037Z,2.30
2018-01-18T13:03:25.241Z,7.47
2018-01-18T13:05:52.661Z,2.58
2018-01-18T13:08:20.198Z,1.95
2018-01-18T13:10:47.590Z,1.50
2018-01-18T13:13:15.071Z,0.93
2018-01-18T13:15:42.478Z,3.35
2018-01-18T13:18:09.884Z,1.65
2018-01-18T13:20:37.301Z,2.03
2018-01-18T13:23:05.483Z,1.27
2018-01-18T13:25:33.661Z,1.62
2018-01-18T13:28:01.833Z,2.17
2018-01-18T13:30:29.286Z,3.37
2018-01-18T13:32:56.713Z,2.45
2018-01-18T13:35:24.293Z,3.15
2018-01-18T13:37:52.455Z,2.80
2018-01-18T13:40:20.659Z,1.55
2018-01-18T13:42:48.137Z,4.75
2018-01-18T13:45:15.588Z,4.05
2018-01-18T13:47:43.915Z,9.52
2018-01-18T13:50:11.367Z,16.37
2018-01-18T13:52:38.796Z,2.40
2018-01-18T13:55:06.999Z,2.10
2018-01-18T13:57:34.405Z,1.67
2018-01-18T14:00:01.841Z,1.45
2018-01-18T14:02:29.267Z,2.90
2018-01-18T14:04:56.794Z,2.83
2018-01-18T14:07:24.953Z,2.25
2018-01-18T14:09:52.376Z,2.55
2018-01-18T14:12:19.818Z,2.62
2018-01-18T14:14:47.276Z,4.75
2018-01-18T14:17:14.874Z,4.25
2018-01-18T14:19:42.291Z,9.13
2018-01-18T14:22:10.470Z,3.30
2018-01-18T14:24:38.688Z,2.53
2018-01-18T14:27:06.154Z,3.15
2018-01-18T14:29:33.598Z,5.60
2018-01-18T14:32:01.775Z,1.73
2018-01-18T14:34:29.186Z,1.80
2018-01-18T14:36:56.650Z,2.00
2018-01-18T14:39:24.817Z,3.25
2018-01-18T14:41:52.233Z,3.40
2018-01-18T14:44:19.646Z,2.83
2018-01-18T14:46:47.377Z,2.55
2018-01-18T14:49:14.754Z,2.67
2018-01-18T14:51:42.161Z,2.95
2018-01-18T14:54:09.581Z,1.80
2018-01-18T14:56:37.021Z,16.85
2018-01-18T14:59:04.486Z,3.05
2018-01-18T15:01:31.928Z,2.90
2018-01-18T15:04:00.150Z,2.22
2018-01-18T15:06:27.574Z,4.45
2018-01-18T15:08:55.811Z,4.68
2018-01-18T15:11:23.259Z,3.45
2018-01-18T15:13:50.753Z,3.70
2018-01-18T15:16:18.168Z,3.80
2018-01-18T15:18:46.391Z,1.23
2018-01-18T15:21:13.810Z,1.48
2018-01-18T15:23:41.317Z,4.10
2018-01-18T15:26:08.755Z,4.30
2018-01-18T15:28:36.182Z,4.72
2018-01-18T15:31:03.620Z,2.25
2018-01-18T15:33:31.792Z,1.70
2018-01-18T15:35:59.985Z,3.05
2018-01-18T15:38:27.394Z,4.15
2018-01-18T15:40:54.829Z,2.55
2018-01-18T15:43:22.303Z,7.80
2018-01-18T15:45:49.783Z,3.00
2018-01-18T15:48:17.937Z,5.00
2018-01-18T15:50:46.160Z,5.43
2018-01-18T15:53:13.574Z,3.55
2018-01-18T15:55:41.002Z,5.18
2018-01-18T15:58:08.418Z,2.30
2018-01-18T16:00:36.593Z,4.12
2018-01-18T16:03:04.115Z,3.58
2018-01-18T16:05:31.813Z,4.57
2018-01-18T16:07:59.220Z,5.22
2018-01-18T16:10:27.420Z,2.90
2018-01-18T16:12:54.910Z,4.50
2018-01-18T16:15:23.110Z,3.72
2018-01-18T16:17:50.596Z,4.72
2018-01-18T16:20:18.054Z,6.32
2018-01-18T16:22:45.492Z,6.32
2018-01-18T16:25:12.966Z,10.80
2018-01-18T16:27:40.405Z,3.53
2018-01-18T16:30:08.609Z,6.45
2018-01-18T16:32:36.031Z,6.12
2018-01-18T16:35:03.437Z,3.95
2018-01-18T16:37:31.671Z,9.75
2018-01-18T16:39:59.123Z,4.72
2018-01-18T16:42:26.550Z,20.70
2018-01-18T16:44:53.967Z,3.67
2018-01-18T16:47:21.376Z,6.47
2018-01-18T16:49:48.828Z,3.35
2018-01-18T16:52:16.233Z,7.55
2018-01-18T16:54:44.493Z,2.28
2018-01-18T16:57:11.938Z,8.43
2018-01-18T16:59:39.345Z,3.12
2018-01-18T17:02:07.576Z,4.18
2018-01-18T17:04:35.032Z,3.20
2018-01-18T17:07:02.539Z,5.90
2018-01-18T17:09:29.963Z,14.15
2018-01-18T17:11:57.449Z,13.02
2018-01-18T17:14:24.885Z,7.00
2018-01-18T17:16:53.107Z,5.70
2018-01-18T17:19:20.514Z,6.78
2018-01-18T17:21:47.966Z,7.47
2018-01-18T17:24:15.386Z,11.77
2018-01-18T17:26:43.602Z,3.40
2018-01-18T17:29:11.010Z,8.65
2018-01-18T17:31:38.433Z,7.28
2018-01-18T17:34:05.850Z,5.12
2018-01-18T17:36:33.279Z,20.25
2018-01-18T17:39:00.742Z,3.53
2018-01-18T17:41:28.224Z,5.05
2018-01-18T17:43:55.681Z,8.60
2018-01-18T17:46:23.120Z,3.60
2018-01-18T17:48:51.331Z,4.70
2018-01-18T17:51:18.842Z,5.20
2018-01-18T17:53:46.269Z,5.47
2018-01-18T17:56:13.696Z,8.77
2018-01-18T17:58:41.210Z,6.15
2018-01-18T18:01:08.642Z,6.57
2018-01-18T18:03:36.821Z,8.40
2018-01-18T18:06:04.222Z,7.37
2018-01-18T18:08:31.630Z,4.62
2018-01-18T18:10:59.049Z,5.20
2018-01-18T18:13:26.537Z,3.42
2018-01-18T18:15:53.957Z,6.68
2018-01-18T18:18:21.441Z,4.00
2018-01-18T18:20:49.636Z,8.27
2018-01-18T18:23:17.889Z,2.85
2018-01-18T18:25:45.343Z,4.00
2018-01-18T18:28:12.774Z,3.30
2018-01-18T18:30:40.947Z,4.32
2018-01-18T18:33:08.367Z,5.20
2018-01-18T18:35:35.833Z,5.70
2018-01-18T18:38:03.242Z,6.40
2018-01-18T18:40:30.658Z,8.15
2018-01-18T18:42:58.148Z,7.75
2018-01-18T18:45:25.575Z,7.78
2018-01-18T18:47:53.760Z,14.15
2018-01-18T18:50:21.938Z,8.60
2018-01-18T18:52:49.358Z,7.90
2018-01-18T18:55:17.677Z,10.00
2018-01-18T18:57:45.135Z,13.35
2018-01-18T19:00:13.316Z,9.30
2018-01-18T19:02:40.730Z,10.48
2018-01-18T19:05:08.909Z,9.77
2018-01-18T19:07:36.325Z,10.90
2018-01-18T19:10:03.757Z,8.68
2018-01-18T19:12:31.163Z,15.80
2018-01-18T19:14:59.353Z,13.38
2018-01-18T19:17:26.790Z,6.20
2018-01-18T19:19:54.348Z,12.18
2018-01-18T19:22:21.763Z,12.48
2018-01-18T19:24:49.198Z,7.45
2018-01-18T19:27:16.672Z,9.55
2018-01-18T19:29:44.127Z,6.85
2018-01-18T19:32:11.582Z,11.35
2018-01-18T19:34:38.998Z,13.32
2018-01-18T19:37:07.996Z,12.55
2018-01-18T19:39:35.405Z,31.85
2018-01-18T19:42:02.821Z,9.50
2018-01-18T19:44:30.254Z,13.85
2018-01-18T19:46:57.674Z,14.60
2018-01-18T19:49:25.085Z,11.20
2018-01-18T19:51:52.522Z,20.75
2018-01-18T19:54:19.924Z,11.77
2018-01-18T19:56:47.349Z,10.27
2018-01-18T19:59:14.891Z,13.48
2018-01-18T20:01:42.309Z,14.48
2018-01-18T20:04:10.495Z,12.10
2018-01-18T20:06:38.710Z,10.98
2018-01-18T20:09:06.119Z,10.20
2018-01-18T20:11:33.561Z,13.62
2018-01-18T20:14:00.964Z,7.78
2018-01-18T20:16:28.394Z,12.25
2018-01-18T20:18:55.854Z,7.20
2018-01-18T20:21:23.329Z,9.00
2018-01-18T20:23:50.845Z,12.40
2018-01-18T20:26:18.259Z,7.57
2018-01-18T20:28:45.668Z,15.55
2018-01-18T20:31:13.117Z,8.20
2018-01-18T20:33:40.538Z,12.52
2018-01-18T20:36:08.754Z,8.30
2018-01-18T20:38:36.173Z,7.82
2018-01-18T20:41:03.689Z,11.75
2018-01-18T20:43:31.113Z,10.68
2018-01-18T20:45:58.597Z,13.27
2018-01-18T20:48:26.817Z,14.27
2018-01-18T20:50:54.229Z,17.12
2018-01-18T20:53:21.674Z,8.38
2018-01-18T20:55:49.121Z,13.68
2018-01-18T20:58:16.546Z,10.10
2018-01-18T21:00:44.757Z,10.23
2018-01-18T21:03:12.181Z,14.13
2018-01-18T21:05:39.601Z,14.13
2018-01-18T21:08:07.015Z,14.07
2018-01-18T21:10:34.465Z,7.87
2018-01-18T21:13:01.871Z,10.05
2018-01-18T21:15:30.102Z,9.20
2018-01-18T21:17:57.539Z,17.98
2018-01-18T21:20:25.750Z,12.52
2018-01-18T21:22:53.172Z,10.73
2018-01-18T21:25:20.595Z,13.10
2018-01-18T21:27:48.051Z,11.18
2018-01-18T21:30:15.478Z,7.72
2018-01-18T21:32:42.981Z,14.32
2018-01-18T21:35:10.407Z,15.75
2018-01-18T21:37:37.826Z,15.10
2018-01-18T21:40:05.237Z,13.82
2018-01-18T21:42:32.669Z,17.20
2018-01-18T21:45:00.098Z,14.65
2018-01-18T21:47:27.603Z,12.65
2018-01-18T21:49:55.054Z,13.23
2018-01-18T21:52:22.468Z,10.93
2018-01-18T21:54:49.898Z,14.70
2018-01-18T21:57:18.097Z,14.65
2018-01-18T21:59:45.568Z,14.13
2018-01-18T22:02:13.019Z,15.52
2018-01-18T22:04:40.435Z,17.30
2018-01-18T22:07:07.868Z,12.18
2018-01-18T22:09:35.273Z,17.25
2018-01-18T22:12:02.682Z,11.98
2018-01-18T22:14:30.105Z,25.92
2018-01-18T22:16:57.529Z,11.40
2018-01-18T22:19:24.956Z,24.50
2018-01-18T22:21:52.475Z,11.52
2018-01-18T22:24:19.943Z,21.30
2018-01-18T22:26:47.437Z,18.42
2018-01-18T22:29:14.856Z,12.25
2018-01-18T22:31:42.313Z,18.83
2018-01-18T22:34:10.507Z,15.45
2018-01-18T22:36:38.689Z,17.98
2018-01-18T22:39:06.869Z,14.90
2018-01-18T22:41:35.102Z,14.57
2018-01-18T22:44:02.670Z,12.93
2018-01-18T22:46:30.844Z,14.75
2018-01-18T22:48:58.326Z,19.33
2018-01-18T22:51:26.481Z,23.00
2018-01-18T22:53:54.702Z,14.30
2018-01-18T22:56:22.139Z,14.25
2018-01-18T22:58:50.386Z,7.95
2018-01-18T23:01:17.835Z,18.55
2018-01-18T23:03:45.404Z,12.70
2018-01-18T23:06:12.852Z,11.90
2018-01-18T23:08:40.261Z,21.20
2018-01-18T23:11:07.690Z,16.50
2018-01-18T23:13:35.105Z,15.50
2018-01-18T23:16:02.649Z,19.67
2018-01-18T23:18:30.157Z,17.25
2018-01-18T23:20:57.570Z,13.98
2018-01-18T23:23:25.055Z,18.80
2018-01-18T23:25:52.512Z,18.52
2018-01-18T23:28:19.937Z,19.42
2018-01-18T23:30:47.347Z,29.30
2018-01-18T23:33:14.818Z,14.02
2018-01-18T23:35:42.382Z,20.73
2018-01-18T23:38:10.539Z,18.58
2018-01-18T23:40:38.710Z,15.70
2018-01-18T23:43:06.908Z,19.23
2018-01-18T23:45:34.317Z,18.85
2018-01-18T23:48:01.748Z,13.23
2018-01-18T23:50:29.946Z,19.50
2018-01-18T23:52:57.380Z,17.45
2018-01-18T23:55:24.785Z,20.62
2018-01-18T23:57:52.219Z,21.00
